createdAt,value
2023-03-27T00:01:36.696Z,100613.28
2023-03-27T00:06:38.192Z,100629.78
2023-03-27T00:11:39.766Z,100635.56
2023-03-27T00:16:41.716Z,100651.88
2023-03-27T00:21:43.359Z,100654.97
2023-03-27T00:26:44.937Z,100670.41
2023-03-27T00:31:46.457Z,100670.84
2023-03-27T00:36:47.989Z,100686.19
2023-03-27T00:41:49.864Z,100687.72
2023-03-27T00:46:53.132Z,100695.38
2023-03-27T00:51:55.263Z,100701.91
2023-03-27T00:57:01.273Z,100704.28
2023-03-27T01:02:03.979Z,100708.13
2023-03-27T01:07:07.177Z,100720.53
2023-03-27T01:12:08.642Z,100725.56
2023-03-27T01:17:38.172Z,100729.16
2023-03-27T01:23:00.889Z,100738.69
2023-03-27T01:28:24.489Z,100744.47
2023-03-27T01:34:00.811Z,100758.81
2023-03-27T01:39:40.926Z,100761.53
2023-03-27T01:45:04.862Z,100771.50
2023-03-27T01:50:08.871Z,100779.13
2023-03-27T01:55:15.707Z,100784.19
2023-03-27T02:00:22.206Z,100795.13
2023-03-27T02:05:38.569Z,100788.94
2023-03-27T02:10:47.332Z,100801.38
2023-03-27T02:15:50.697Z,100804.94
2023-03-27T02:20:52.954Z,100821.16
2023-03-27T02:25:54.503Z,100827.16
2023-03-27T02:31:06.566Z,100841.31
2023-03-27T02:36:47.137Z,100854.56
2023-03-27T02:41:57.151Z,100859.03
2023-03-27T02:47:18.135Z,100859.84
2023-03-27T02:52:37.565Z,100874.41
2023-03-27T02:57:39.214Z,100882.47
2023-03-27T03:03:03.192Z,100886.66
2023-03-27T03:08:06.068Z,100891.31
2023-03-27T03:13:07.825Z,100900.84
2023-03-27T03:18:09.334Z,100911.00
2023-03-27T03:23:11.530Z,100910.41
2023-03-27T03:28:13.762Z,100926.16
2023-03-27T03:33:15.268Z,100932.94
2023-03-27T03:38:17.684Z,100942.91
2023-03-27T03:43:22.562Z,100946.81
2023-03-27T03:48:24.166Z,100957.38
2023-03-27T03:53:25.862Z,100970.78
2023-03-27T03:58:34.460Z,100975.38
2023-03-27T04:03:39.493Z,100978.84
2023-03-27T04:08:44.505Z,100988.97
2023-03-27T04:14:04.621Z,100993.72
2023-03-27T04:19:12.376Z,100989.91
2023-03-27T04:24:16.491Z,101003.44
2023-03-27T04:29:21.222Z,101014.38
2023-03-27T04:34:47.044Z,101021.28
2023-03-27T04:39:57.569Z,101029.97
2023-03-27T04:44:59.205Z,101044.44
2023-03-27T04:50:00.786Z,101057.59
2023-03-27T04:55:04.622Z,101059.38
2023-03-27T05:00:07.488Z,101071.38
2023-03-27T05:05:34.735Z,101065.28
2023-03-27T05:10:39.261Z,101078.47
2023-03-27T05:15:40.964Z,101077.19
2023-03-27T05:20:46.457Z,101087.13
2023-03-27T05:26:00.152Z,101097.47
2023-03-27T05:31:14.469Z,101103.69
2023-03-27T05:36:29.131Z,101117.44
2023-03-27T05:41:32.128Z,101128.34
2023-03-27T05:46:33.860Z,101131.03
2023-03-27T05:51:49.874Z,101141.47
2023-03-27T05:56:55.047Z,101144.16
2023-03-27T06:01:57.075Z,101150.59
2023-03-27T06:07:01.810Z,101157.03
2023-03-27T06:12:05.420Z,101159.78
2023-03-27T06:17:12.365Z,101169.78
2023-03-27T06:22:23.122Z,101181.84
2023-03-27T06:27:24.844Z,101191.38
2023-03-27T06:32:27.587Z,101201.50
2023-03-27T06:37:30.989Z,101193.38
2023-03-27T06:42:33.335Z,101207.00
2023-03-27T06:48:16.955Z,101224.41
2023-03-27T06:53:27.258Z,101229.19
2023-03-27T06:58:29.839Z,101229.25
2023-03-27T07:03:31.445Z,101248.88
2023-03-27T07:08:32.948Z,101249.41
2023-03-27T07:13:34.851Z,101256.16
2023-03-27T07:18:40.395Z,101274.56
2023-03-27T07:23:41.963Z,101282.16
2023-03-27T07:28:46.718Z,101286.75
2023-03-27T07:33:48.914Z,101296.88
2023-03-27T07:38:51.154Z,101287.53
2023-03-27T07:44:00.903Z,101296.69
2023-03-27T07:49:13.573Z,101312.44
2023-03-27T07:54:15.872Z,101298.72
2023-03-27T07:59:22.937Z,101319.50
2023-03-27T08:04:25.336Z,101319.06
2023-03-27T08:09:39.973Z,101319.19
2023-03-27T08:14:42.839Z,101329.47
2023-03-27T08:19:53.824Z,101328.56
2023-03-27T08:24:55.681Z,101327.56
2023-03-27T08:30:00.873Z,101348.78
2023-03-27T08:35:03.134Z,101343.28
2023-03-27T08:40:05.358Z,101335.28
2023-03-27T08:45:48.591Z,101351.09
2023-03-27T08:50:59.071Z,101352.72
2023-03-27T08:56:00.887Z,101361.63
2023-03-27T09:01:26.776Z,101360.25
2023-03-27T09:06:55.819Z,101375.75
2023-03-27T09:12:09.669Z,101382.94
2023-03-27T09:17:31.934Z,101374.88
2023-03-27T09:22:44.857Z,101383.88
2023-03-27T09:27:52.357Z,101379.16
2023-03-27T09:33:11.354Z,101393.53
2023-03-27T09:38:31.728Z,101401.38
2023-03-27T09:44:02.940Z,101393.09
2023-03-27T09:49:13.333Z,101397.19
2023-03-27T09:54:23.659Z,101410.06
2023-03-27T09:59:54.511Z,101404.06
2023-03-27T10:05:06.977Z,101416.94
2023-03-27T10:10:29.364Z,101423.75
2023-03-27T10:15:41.059Z,101412.56
2023-03-27T10:20:51.653Z,101424.59
2023-03-27T10:26:00.801Z,101421.47
2023-03-27T10:31:26.716Z,101433.13
2023-03-27T10:36:36.025Z,101438.41
2023-03-27T10:41:47.798Z,101426.50
2023-03-27T10:46:50.052Z,101438.75
2023-03-27T10:51:57.484Z,101429.19
2023-03-27T10:57:23.505Z,101429.97
2023-03-27T11:02:46.399Z,101432.69
2023-03-27T11:07:58.364Z,101439.78
2023-03-27T11:13:11.103Z,101442.75
2023-03-27T11:18:28.291Z,101448.34
2023-03-27T11:24:15.915Z,101468.03
2023-03-27T11:29:32.373Z,101458.22
2023-03-27T11:34:37.804Z,101460.94
2023-03-27T11:40:09.065Z,101457.72
2023-03-27T11:45:16.812Z,101471.31
2023-03-27T11:50:22.444Z,101476.13
2023-03-27T11:55:56.256Z,101475.16
2023-03-27T12:01:18.089Z,101479.00
2023-03-27T12:06:29.868Z,101471.50
2023-03-27T12:11:37.554Z,101473.47
2023-03-27T12:16:53.743Z,101493.63
2023-03-27T12:22:31.167Z,101545.16
2023-03-27T12:27:44.172Z,101532.19
2023-03-27T12:33:59.689Z,101515.78
2023-03-27T12:39:01.734Z,101535.50
2023-03-27T12:44:05.298Z,101534.81
2023-03-27T12:49:16.754Z,101521.66
2023-03-27T12:54:37.972Z,101521.09
2023-03-27T13:00:01.562Z,101512.09
2023-03-27T13:05:39.565Z,101522.34
2023-03-27T13:10:57.874Z,101520.88
2023-03-27T13:16:04.838Z,101518.00
2023-03-27T13:21:50.560Z,101508.59
2023-03-27T13:27:27.357Z,101526.13
2023-03-27T13:32:41.313Z,101523.69
2023-03-27T13:37:55.833Z,101529.81
2023-03-27T13:43:24.636Z,101521.53
2023-03-27T13:48:36.359Z,101548.41
2023-03-27T13:53:59.668Z,101546.03
2023-03-27T13:59:35.489Z,101557.88
2023-03-27T14:04:45.245Z,101560.16
2023-03-27T14:09:53.601Z,101564.59
2023-03-27T14:15:41.793Z,101554.41
2023-03-27T14:21:03.302Z,101552.72
2023-03-27T14:26:18.661Z,101551.47
2023-03-27T14:31:23.784Z,101548.16
2023-03-27T14:36:39.169Z,101542.44
2023-03-27T14:41:52.919Z,101543.72
2023-03-27T14:47:06.090Z,101550.69
2023-03-27T14:52:08.930Z,101546.66
2023-03-27T14:57:29.419Z,101546.50
2023-03-27T15:02:35.253Z,101565.91
2023-03-27T15:07:40.725Z,101579.28
2023-03-27T15:12:51.266Z,101595.16
2023-03-27T15:17:54.852Z,101598.94
2023-03-27T15:23:11.802Z,101603.44
2023-03-27T15:28:41.734Z,101609.19
2023-03-27T15:33:52.676Z,101608.19
2023-03-27T15:38:58.324Z,101614.94
2023-03-27T15:44:05.461Z,101620.97
2023-03-27T15:49:35.447Z,101634.19
2023-03-27T15:54:53.370Z,101601.50
2023-03-27T15:59:59.902Z,101609.22
2023-03-27T16:05:01.569Z,101614.66
2023-03-27T16:10:06.261Z,101630.44
2023-03-27T16:15:30.597Z,101643.19
2023-03-27T16:20:34.870Z,101652.28
2023-03-27T16:25:37.107Z,101645.34
2023-03-27T16:30:39.429Z,101652.41
2023-03-27T16:35:41.078Z,101649.66
2023-03-27T16:40:43.534Z,101647.63
2023-03-27T16:45:45.278Z,101644.38
2023-03-27T16:50:46.994Z,101655.31
2023-03-27T16:55:48.489Z,101660.28
2023-03-27T17:00:50.229Z,101663.72
2023-03-27T17:05:51.806Z,101656.72
2023-03-27T17:10:53.342Z,101666.16
2023-03-27T17:15:55.102Z,101679.22
2023-03-27T17:20:56.736Z,101681.25
2023-03-27T17:26:03.015Z,101689.50
2023-03-27T17:31:05.664Z,101696.03
2023-03-27T17:36:13.165Z,101703.19
2023-03-27T17:41:15.471Z,101708.63
2023-03-27T17:46:17.019Z,101707.78
2023-03-27T17:51:18.581Z,101714.91
2023-03-27T17:56:20.165Z,101723.50
2023-03-27T18:01:23.069Z,101724.81
2023-03-27T18:06:24.593Z,101734.16
2023-03-27T18:11:26.111Z,101744.91
2023-03-27T18:16:27.804Z,101742.75
2023-03-27T18:21:29.337Z,101748.63
2023-03-27T18:26:30.856Z,101749.13
2023-03-27T18:31:32.748Z,101754.88
2023-03-27T18:36:34.368Z,101766.44
2023-03-27T18:41:35.895Z,101777.06
2023-03-27T18:46:37.481Z,101781.97
2023-03-27T18:51:39.008Z,101786.88
2023-03-27T18:56:40.717Z,101794.25
2023-03-27T19:01:42.245Z,101792.72
2023-03-27T19:06:43.907Z,101801.00
2023-03-27T19:11:45.437Z,101802.56
2023-03-27T19:17:05.665Z,101814.16
2023-03-27T19:22:13.418Z,101810.63
2023-03-27T19:27:23.517Z,101821.03
2023-03-27T19:32:26.211Z,101828.25
2023-03-27T19:37:27.701Z,101828.59
2023-03-27T19:42:29.294Z,101822.13
2023-03-27T19:47:31.393Z,101827.19
2023-03-27T19:52:33.258Z,101831.22
2023-03-27T19:57:34.754Z,101831.97
2023-03-27T20:02:36.316Z,101838.13
2023-03-27T20:07:38.944Z,101838.22
2023-03-27T20:12:43.741Z,101848.25
2023-03-27T20:17:45.304Z,101841.28
2023-03-27T20:22:57.221Z,101843.91
2023-03-27T20:28:00.540Z,101850.31
2023-03-27T20:33:02.511Z,101858.16
2023-03-27T20:38:35.398Z,101862.78
2023-03-27T20:43:37.708Z,101847.19
2023-03-27T20:48:39.325Z,101853.88
2023-03-27T20:53:42.609Z,101858.75
2023-03-27T20:58:44.186Z,101862.38
2023-03-27T21:03:46.284Z,101856.72
2023-03-27T21:08:47.867Z,101864.59
2023-03-27T21:13:49.424Z,101864.66
2023-03-27T21:18:50.922Z,101862.97
2023-03-27T21:23:52.486Z,101872.25
2023-03-27T21:28:54.011Z,101878.09
2023-03-27T21:33:55.580Z,101876.41
2023-03-27T21:38:57.664Z,101885.56
2023-03-27T21:43:59.204Z,101879.75
2023-03-27T21:49:00.736Z,101889.44
2023-03-27T21:54:02.621Z,101896.63
2023-03-27T21:59:04.141Z,101895.72
2023-03-27T22:04:05.757Z,101893.13
2023-03-27T22:09:07.482Z,101901.25
2023-03-27T22:14:09.258Z,101900.06
2023-03-27T22:19:11.040Z,101908.38
2023-03-27T22:24:12.732Z,101913.34
2023-03-27T22:29:14.490Z,101913.28
2023-03-27T22:34:15.977Z,101922.94
2023-03-27T22:39:17.459Z,101920.44
2023-03-27T22:44:19.158Z,101935.09
2023-03-27T22:49:20.752Z,101927.94
2023-03-27T22:54:22.272Z,101940.69
2023-03-27T22:59:23.768Z,101947.91
2023-03-27T23:04:25.339Z,101952.81
2023-03-27T23:09:26.859Z,101968.31
2023-03-27T23:14:28.346Z,101965.94
2023-03-27T23:19:29.838Z,101968.72
2023-03-27T23:24:31.408Z,101970.16
2023-03-27T23:29:32.897Z,101979.38
2023-03-27T23:34:34.494Z,101984.31
2023-03-27T23:39:35.958Z,101985.03
2023-03-27T23:44:37.442Z,101986.28
2023-03-27T23:49:38.929Z,101994.81
2023-03-27T23:54:40.460Z,101993.75
2023-03-27T23:59:41.972Z,101998.75
